<?xml version="1.0" encoding="UTF-8" standalone="no" ?>
<gpx xmlns="http://www.topografix.com/GPX/1/1" xmlns:xsi="http://www.w3.org/2001/XMLSchema-instance" xsi:schemaLocation="http://www.topografix.com/GPX/1/1 http://www.topografix.com/GPX/1/1/gpx.xsd" version="1.1" creator="VisuGPX - https://www.visugpx.com">
  <metadata>
    <name>Vacances 2021</name>
  </metadata>
  <trk>
    <name><![CDATA[Journal actif: 2021-07-21 09:26]]></name>
    <trkseg>
      <trkpt lat="49.04374" lon="7.7751">
        <ele>277.96</ele>
        <time>2021-07-21T11:26:50Z</time>
      </trkpt>
      <trkpt lat="49.04478" lon="7.77569">
        <ele>281.32</ele>
        <time>2021-07-21T11:27:03Z</time>
      </trkpt>
      <trkpt lat="49.04581" lon="7.77688">
        <ele>288.05</ele>
        <time>2021-07-21T11:27:15Z</time>
      </trkpt>
      <trkpt lat="49.04686" lon="7.77827">
        <ele>296.7</ele>
        <time>2021-07-21T11:27:28Z</time>
      </trkpt>
      <trkpt lat="49.04723" lon="7.77868">
        <ele>298.15</ele>
        <time>2021-07-21T11:27:36Z</time>
      </trkpt>
      <trkpt lat="49.04736" lon="7.77899">
        <ele>297.18</ele>
        <time>2021-07-21T11:27:49Z</time>
      </trkpt>
      <trkpt lat="49.04736" lon="7.77899">
        <ele>297.18</ele>
        <time>2021-07-21T11:28:08Z</time>
      </trkpt>
      <trkpt lat="49.04743" lon="7.77933">
        <ele>295.74</ele>
        <time>2021-07-21T11:28:14Z</time>
      </trkpt>
      <trkpt lat="49.04785" lon="7.78023">
        <ele>291.9</ele>
        <time>2021-07-21T11:28:24Z</time>
      </trkpt>
      <trkpt lat="49.04785" lon="7.78023">
        <ele>290.94</ele>
        <time>2021-07-21T11:28:25Z</time>
      </trkpt>
      <trkpt lat="49.0479" lon="7.78028">
        <ele>290.46</ele>
        <time>2021-07-21T11:28:26Z</time>
      </trkpt>
      <trkpt lat="49.04795" lon="7.78032">
        <ele>289.97</ele>
        <time>2021-07-21T11:28:27Z</time>
      </trkpt>
      <trkpt lat="49.048" lon="7.78036">
        <ele>289.49</ele>
        <time>2021-07-21T11:28:28Z</time>
      </trkpt>
      <trkpt lat="49.04864" lon="7.78084">
        <ele>281.8</ele>
        <time>2021-07-21T11:28:40Z</time>
      </trkpt>
      <trkpt lat="49.04908" lon="7.78111">
        <ele>273.63</ele>
        <time>2021-07-21T11:28:50Z</time>
      </trkpt>
      <trkpt lat="49.0492" lon="7.78119">
        <ele>268.35</ele>
        <time>2021-07-21T11:28:58Z</time>
      </trkpt>
      <trkpt lat="49.04922" lon="7.7812">
        <ele>267.38</ele>
        <time>2021-07-21T11:28:59Z</time>
      </trkpt>
      <trkpt lat="49.04924" lon="7.78121">
        <ele>266.9</ele>
        <time>2021-07-21T11:29:00Z</time>
      </trkpt>
      <trkpt lat="49.04924" lon="7.78121">
        <ele>265.94</ele>
        <time>2021-07-21T11:29:01Z</time>
      </trkpt>
      <trkpt lat="49.04924" lon="7.78121">
        <ele>264.98</ele>
        <time>2021-07-21T11:29:02Z</time>
      </trkpt>
      <trkpt lat="49.04915" lon="7.78094">
        <ele>259.21</ele>
        <time>2021-07-21T11:29:09Z</time>
      </trkpt>
      <trkpt lat="49.04908" lon="7.78088">
        <ele>257.77</ele>
        <time>2021-07-21T11:29:11Z</time>
      </trkpt>
      <trkpt lat="49.04871" lon="7.78052">
        <ele>250.08</ele>
        <time>2021-07-21T11:29:20Z</time>
      </trkpt>
      <trkpt lat="49.04874" lon="7.77997">
        <ele>244.31</ele>
        <time>2021-07-21T11:29:26Z</time>
      </trkpt>
      <trkpt lat="49.04877" lon="7.77997">
        <ele>243.35</ele>
        <time>2021-07-21T11:29:27Z</time>
      </trkpt>
      <trkpt lat="49.04879" lon="7.77997">
        <ele>242.87</ele>
        <time>2021-07-21T11:29:28Z</time>
      </trkpt>
      <trkpt lat="49.04881" lon="7.77997">
        <ele>242.39</ele>
        <time>2021-07-21T11:29:29Z</time>
      </trkpt>
      <trkpt lat="49.04882" lon="7.77997">
        <ele>241.91</ele>
        <time>2021-07-21T11:29:30Z</time>
      </trkpt>
      <trkpt lat="49.04884" lon="7.77997">
        <ele>240.95</ele>
        <time>2021-07-21T11:29:31Z</time>
      </trkpt>
      <trkpt lat="49.04887" lon="7.77997">
        <ele>239.99</ele>
        <time>2021-07-21T11:29:32Z</time>
      </trkpt>
      <trkpt lat="49.04889" lon="7.77997">
        <ele>240.47</ele>
        <time>2021-07-21T11:29:33Z</time>
      </trkpt>
      <trkpt lat="49.04935" lon="7.78036">
        <ele>236.14</ele>
        <time>2021-07-21T11:29:41Z</time>
      </trkpt>
      <trkpt lat="49.04939" lon="7.78043">
        <ele>235.66</ele>
        <time>2021-07-21T11:29:42Z</time>
      </trkpt>
      <trkpt lat="49.04943" lon="7.78049">
        <ele>235.18</ele>
        <time>2021-07-21T11:29:43Z</time>
      </trkpt>
      <trkpt lat="49.04955" lon="7.78069">
        <ele>233.74</ele>
        <time>2021-07-21T11:29:46Z</time>
      </trkpt>
      <trkpt lat="49.04963" lon="7.78081">
        <ele>231.81</ele>
        <time>2021-07-21T11:29:48Z</time>
      </trkpt>
      <trkpt lat="49.04975" lon="7.78106">
        <ele>227.97</ele>
        <time>2021-07-21T11:29:52Z</time>
      </trkpt>
      <trkpt lat="49.04976" lon="7.78109">
        <ele>227.01</ele>
        <time>2021-07-21T11:29:53Z</time>
      </trkpt>
      <trkpt lat="49.04971" lon="7.78094">
        <ele>226.05</ele>
        <time>2021-07-21T11:29:54Z</time>
      </trkpt>
      <trkpt lat="49.04975" lon="7.78171">
        <ele>224.12</ele>
        <time>2021-07-21T11:29:56Z</time>
      </trkpt>
      <trkpt lat="49.04981" lon="7.78143">
        <ele>223.16</ele>
        <time>2021-07-21T11:29:57Z</time>
      </trkpt>
      <trkpt lat="49.04981" lon="7.78138">
        <ele>222.2</ele>
        <time>2021-07-21T11:29:58Z</time>
      </trkpt>
      <trkpt lat="49.04981" lon="7.78133">
        <ele>220.76</ele>
        <time>2021-07-21T11:29:59Z</time>
      </trkpt>
      <trkpt lat="49.04978" lon="7.78118">
        <ele>219.8</ele>
        <time>2021-07-21T11:30:00Z</time>
      </trkpt>
      <trkpt lat="49.04958" lon="7.78074">
        <ele>213.55</ele>
        <time>2021-07-21T11:30:10Z</time>
      </trkpt>
      <trkpt lat="49.04948" lon="7.78056">
        <ele>214.03</ele>
        <time>2021-07-21T11:30:22Z</time>
      </trkpt>
      <trkpt lat="49.04936" lon="7.78038">
        <ele>212.59</ele>
        <time>2021-07-21T11:30:36Z</time>
      </trkpt>
      <trkpt lat="49.04925" lon="7.78019">
        <ele>214.99</ele>
        <time>2021-07-21T11:30:47Z</time>
      </trkpt>
      <trkpt lat="49.04921" lon="7.78014">
        <ele>221.72</ele>
        <time>2021-07-21T11:31:00Z</time>
      </trkpt>
    </trkseg>
  </trk>
</gpx>